<?xml version="1.0" encoding="UTF-8" standalone="no" ?>
<gpx xmlns="http://www.topografix.com/GPX/1/1" xmlns:xsi="http://www.w3.org/2001/XMLSchema-instance" xsi:schemaLocation="http://www.topografix.com/GPX/1/1 http://www.topografix.com/GPX/1/1/gpx.xsd" version="1.1" creator="VisuGPX - https://www.visugpx.com">
  <metadata>
    <name>Noidans Cesar</name>
    <desc><![CDATA[Pour Quad J-Mi]]></desc>
  </metadata>
  <trk>
    <name><![CDATA[Quad JM on GPSies.com]]></name>
    <trkseg>
      <trkpt lat="47.57027" lon="5.95098">
        <ele>226</ele>
        <time>2010-01-01T00:00:00Z</time>
      </trkpt>
      <trkpt lat="47.57027" lon="5.95288">
        <ele>225</ele>
        <time>2010-01-01T00:00:51Z</time>
      </trkpt>
      <trkpt lat="47.57044" lon="5.95434">
        <ele>226</ele>
        <time>2010-01-01T00:01:31Z</time>
      </trkpt>
      <trkpt lat="47.57013" lon="5.95537">
        <ele>231</ele>
        <time>2010-01-01T00:02:01Z</time>
      </trkpt>
      <trkpt lat="47.57044" lon="5.9573">
        <ele>232</ele>
        <time>2010-01-01T00:02:55Z</time>
      </trkpt>
      <trkpt lat="47.56984" lon="5.95846">
        <ele>235</ele>
        <time>2010-01-01T00:03:34Z</time>
      </trkpt>
      <trkpt lat="47.57015" lon="5.96536">
        <ele>239</ele>
        <time>2010-01-01T00:06:41Z</time>
      </trkpt>
      <trkpt lat="47.5705" lon="5.96708">
        <ele>239</ele>
        <time>2010-01-01T00:07:30Z</time>
      </trkpt>
      <trkpt lat="47.56613" lon="5.96524">
        <ele>242</ele>
        <time>2010-01-01T00:10:31Z</time>
      </trkpt>
      <trkpt lat="47.56066" lon="5.97219">
        <ele>240</ele>
        <time>2010-01-01T00:15:20Z</time>
      </trkpt>
      <trkpt lat="47.55582" lon="5.97433">
        <ele>240</ele>
        <time>2010-01-01T00:18:42Z</time>
      </trkpt>
      <trkpt lat="47.55628" lon="5.97734">
        <ele>243</ele>
        <time>2010-01-01T00:20:05Z</time>
      </trkpt>
      <trkpt lat="47.55796" lon="5.97704">
        <ele>237</ele>
        <time>2010-01-01T00:21:13Z</time>
      </trkpt>
      <trkpt lat="47.55843" lon="5.98094">
        <ele>248</ele>
        <time>2010-01-01T00:23:00Z</time>
      </trkpt>
      <trkpt lat="47.5579" lon="5.9812">
        <ele>248</ele>
        <time>2010-01-01T00:23:23Z</time>
      </trkpt>
      <trkpt lat="47.55614" lon="5.983">
        <ele>241</ele>
        <time>2010-01-01T00:24:48Z</time>
      </trkpt>
      <trkpt lat="47.5555" lon="5.98472">
        <ele>246</ele>
        <time>2010-01-01T00:25:41Z</time>
      </trkpt>
      <trkpt lat="47.56074" lon="5.98549">
        <ele>247</ele>
        <time>2010-01-01T00:29:12Z</time>
      </trkpt>
      <trkpt lat="47.56181" lon="5.99116">
        <ele>243</ele>
        <time>2010-01-01T00:31:51Z</time>
      </trkpt>
      <trkpt lat="47.56309" lon="5.9915">
        <ele>253</ele>
        <time>2010-01-01T00:32:43Z</time>
      </trkpt>
      <trkpt lat="47.56433" lon="5.99408">
        <ele>239</ele>
        <time>2010-01-01T00:34:09Z</time>
      </trkpt>
      <trkpt lat="47.56512" lon="5.99472">
        <ele>243</ele>
        <time>2010-01-01T00:34:45Z</time>
      </trkpt>
      <trkpt lat="47.56575" lon="5.99592">
        <ele>244</ele>
        <time>2010-01-01T00:35:26Z</time>
      </trkpt>
      <trkpt lat="47.56642" lon="5.99506">
        <ele>239</ele>
        <time>2010-01-01T00:36:01Z</time>
      </trkpt>
      <trkpt lat="47.5703" lon="6.00103">
        <ele>245</ele>
        <time>2010-01-01T00:39:45Z</time>
      </trkpt>
      <trkpt lat="47.57253" lon="6.00214">
        <ele>240</ele>
        <time>2010-01-01T00:41:19Z</time>
      </trkpt>
      <trkpt lat="47.57276" lon="6.00463">
        <ele>239</ele>
        <time>2010-01-01T00:42:27Z</time>
      </trkpt>
      <trkpt lat="47.57589" lon="6.01197">
        <ele>233</ele>
        <time>2010-01-01T00:46:22Z</time>
      </trkpt>
      <trkpt lat="47.58162" lon="6.01133">
        <ele>220</ele>
        <time>2010-01-01T00:50:12Z</time>
      </trkpt>
      <trkpt lat="47.58286" lon="6.0115">
        <ele>219</ele>
        <time>2010-01-01T00:51:02Z</time>
      </trkpt>
      <trkpt lat="47.58321" lon="6.01257">
        <ele>220</ele>
        <time>2010-01-01T00:51:34Z</time>
      </trkpt>
      <trkpt lat="47.58202" lon="6.01583">
        <ele>226</ele>
        <time>2010-01-01T00:53:14Z</time>
      </trkpt>
      <trkpt lat="47.58231" lon="6.01961">
        <ele>230</ele>
        <time>2010-01-01T00:54:56Z</time>
      </trkpt>
      <trkpt lat="47.58217" lon="6.02085">
        <ele>231</ele>
        <time>2010-01-01T00:55:30Z</time>
      </trkpt>
      <trkpt lat="47.58252" lon="6.02146">
        <ele>238</ele>
        <time>2010-01-01T00:55:52Z</time>
      </trkpt>
      <trkpt lat="47.58315" lon="6.02472">
        <ele>248</ele>
        <time>2010-01-01T00:57:24Z</time>
      </trkpt>
      <trkpt lat="47.58142" lon="6.03055">
        <ele>261</ele>
        <time>2010-01-01T01:00:16Z</time>
      </trkpt>
      <trkpt lat="47.58382" lon="6.03218">
        <ele>241</ele>
        <time>2010-01-01T01:02:01Z</time>
      </trkpt>
      <trkpt lat="47.58359" lon="6.03309">
        <ele>252</ele>
        <time>2010-01-01T01:02:27Z</time>
      </trkpt>
      <trkpt lat="47.58616" lon="6.03463">
        <ele>244</ele>
        <time>2010-01-01T01:04:18Z</time>
      </trkpt>
      <trkpt lat="47.58833" lon="6.02725">
        <ele>256</ele>
        <time>2010-01-01T01:07:56Z</time>
      </trkpt>
      <trkpt lat="47.58914" lon="6.02665">
        <ele>252</ele>
        <time>2010-01-01T01:08:32Z</time>
      </trkpt>
      <trkpt lat="47.59016" lon="6.02506">
        <ele>241</ele>
        <time>2010-01-01T01:09:31Z</time>
      </trkpt>
      <trkpt lat="47.59126" lon="6.02618">
        <ele>248</ele>
        <time>2010-01-01T01:10:25Z</time>
      </trkpt>
      <trkpt lat="47.59108" lon="6.02523">
        <ele>244</ele>
        <time>2010-01-01T01:10:51Z</time>
      </trkpt>
      <trkpt lat="47.59068" lon="6.02403">
        <ele>249</ele>
        <time>2010-01-01T01:11:27Z</time>
      </trkpt>
      <trkpt lat="47.58958" lon="6.02274">
        <ele>236</ele>
        <time>2010-01-01T01:12:24Z</time>
      </trkpt>
      <trkpt lat="47.59001" lon="6.02206">
        <ele>237</ele>
        <time>2010-01-01T01:12:49Z</time>
      </trkpt>
      <trkpt lat="47.59363" lon="6.02253">
        <ele>255</ele>
        <time>2010-01-01T01:15:14Z</time>
      </trkpt>
      <trkpt lat="47.59323" lon="6.02437">
        <ele>253</ele>
        <time>2010-01-01T01:16:06Z</time>
      </trkpt>
      <trkpt lat="47.59482" lon="6.02493">
        <ele>253</ele>
        <time>2010-01-01T01:17:12Z</time>
      </trkpt>
      <trkpt lat="47.59496" lon="6.02424">
        <ele>255</ele>
        <time>2010-01-01T01:17:31Z</time>
      </trkpt>
      <trkpt lat="47.59624" lon="6.02497">
        <ele>252</ele>
        <time>2010-01-01T01:18:26Z</time>
      </trkpt>
      <trkpt lat="47.59679" lon="6.02373">
        <ele>254</ele>
        <time>2010-01-01T01:19:06Z</time>
      </trkpt>
      <trkpt lat="47.59742" lon="6.02283">
        <ele>252</ele>
        <time>2010-01-01T01:19:41Z</time>
      </trkpt>
      <trkpt lat="47.59771" lon="6.02085">
        <ele>259</ele>
        <time>2010-01-01T01:20:36Z</time>
      </trkpt>
      <trkpt lat="47.59612" lon="6.01768">
        <ele>260</ele>
        <time>2010-01-01T01:22:23Z</time>
      </trkpt>
      <trkpt lat="47.59525" lon="6.01588">
        <ele>266</ele>
        <time>2010-01-01T01:23:22Z</time>
      </trkpt>
      <trkpt lat="47.59485" lon="6.01519">
        <ele>259</ele>
        <time>2010-01-01T01:23:47Z</time>
      </trkpt>
      <trkpt lat="47.5949" lon="6.01304">
        <ele>253</ele>
        <time>2010-01-01T01:24:45Z</time>
      </trkpt>
      <trkpt lat="47.59543" lon="6.01236">
        <ele>251</ele>
        <time>2010-01-01T01:25:13Z</time>
      </trkpt>
      <trkpt lat="47.59563" lon="6.01">
        <ele>250</ele>
        <time>2010-01-01T01:26:17Z</time>
      </trkpt>
      <trkpt lat="47.5993" lon="6.01038">
        <ele>241</ele>
        <time>2010-01-01T01:28:45Z</time>
      </trkpt>
      <trkpt lat="47.59966" lon="6.01124">
        <ele>248</ele>
        <time>2010-01-01T01:29:12Z</time>
      </trkpt>
      <trkpt lat="47.60126" lon="6.01607">
        <ele>258</ele>
        <time>2010-01-01T01:31:37Z</time>
      </trkpt>
      <trkpt lat="47.60166" lon="6.01631">
        <ele>258</ele>
        <time>2010-01-01T01:31:54Z</time>
      </trkpt>
      <trkpt lat="47.60265" lon="6.01742">
        <ele>253</ele>
        <time>2010-01-01T01:32:44Z</time>
      </trkpt>
      <trkpt lat="47.60282" lon="6.0157">
        <ele>258</ele>
        <time>2010-01-01T01:33:31Z</time>
      </trkpt>
      <trkpt lat="47.60238" lon="6.01528">
        <ele>257</ele>
        <time>2010-01-01T01:33:52Z</time>
      </trkpt>
      <trkpt lat="47.60241" lon="6.01489">
        <ele>257</ele>
        <time>2010-01-01T01:34:03Z</time>
      </trkpt>
      <trkpt lat="47.60224" lon="6.01397">
        <ele>260</ele>
        <time>2010-01-01T01:34:28Z</time>
      </trkpt>
      <trkpt lat="47.60272" lon="6.01294">
        <ele>262</ele>
        <time>2010-01-01T01:35:02Z</time>
      </trkpt>
      <trkpt lat="47.60186" lon="6.0092">
        <ele>260</ele>
        <time>2010-01-01T01:36:49Z</time>
      </trkpt>
      <trkpt lat="47.60075" lon="6.006">
        <ele>254</ele>
        <time>2010-01-01T01:38:26Z</time>
      </trkpt>
      <trkpt lat="47.60269" lon="6.00688">
        <ele>259</ele>
        <time>2010-01-01T01:39:47Z</time>
      </trkpt>
      <trkpt lat="47.60446" lon="6.00559">
        <ele>244</ele>
        <time>2010-01-01T01:41:06Z</time>
      </trkpt>
      <trkpt lat="47.6085" lon="6.00251">
        <ele>231</ele>
        <time>2010-01-01T01:44:08Z</time>
      </trkpt>
      <trkpt lat="47.61007" lon="6.00152">
        <ele>226</ele>
        <time>2010-01-01T01:45:16Z</time>
      </trkpt>
      <trkpt lat="47.6105" lon="6.00189">
        <ele>221</ele>
        <time>2010-01-01T01:45:36Z</time>
      </trkpt>
      <trkpt lat="47.61133" lon="6.00165">
        <ele>226</ele>
        <time>2010-01-01T01:46:10Z</time>
      </trkpt>
      <trkpt lat="47.61185" lon="6.00154">
        <ele>226</ele>
        <time>2010-01-01T01:46:31Z</time>
      </trkpt>
      <trkpt lat="47.61196" lon="6.00201">
        <ele>226</ele>
        <time>2010-01-01T01:46:44Z</time>
      </trkpt>
      <trkpt lat="47.61241" lon="6.00182">
        <ele>233</ele>
        <time>2010-01-01T01:47:03Z</time>
      </trkpt>
      <trkpt lat="47.61562" lon="6.00242">
        <ele>241</ele>
        <time>2010-01-01T01:49:13Z</time>
      </trkpt>
      <trkpt lat="47.61927" lon="6.00347">
        <ele>253</ele>
        <time>2010-01-01T01:51:41Z</time>
      </trkpt>
      <trkpt lat="47.62277" lon="6.00262">
        <ele>258</ele>
        <time>2010-01-01T01:54:03Z</time>
      </trkpt>
      <trkpt lat="47.62336" lon="6.00227">
        <ele>252</ele>
        <time>2010-01-01T01:54:29Z</time>
      </trkpt>
      <trkpt lat="47.62174" lon="5.99431">
        <ele>250</ele>
        <time>2010-01-01T01:58:13Z</time>
      </trkpt>
      <trkpt lat="47.62492" lon="5.99562">
        <ele>233</ele>
        <time>2010-01-01T02:00:25Z</time>
      </trkpt>
      <trkpt lat="47.62789" lon="5.99824">
        <ele>242</ele>
        <time>2010-01-01T02:02:44Z</time>
      </trkpt>
      <trkpt lat="47.62939" lon="5.9995">
        <ele>251</ele>
        <time>2010-01-01T02:03:53Z</time>
      </trkpt>
      <trkpt lat="47.63019" lon="6.00028">
        <ele>255</ele>
        <time>2010-01-01T02:04:31Z</time>
      </trkpt>
      <trkpt lat="47.63147" lon="6.00118">
        <ele>261</ele>
        <time>2010-01-01T02:05:28Z</time>
      </trkpt>
      <trkpt lat="47.63383" lon="6.0009">
        <ele>246</ele>
        <time>2010-01-01T02:07:02Z</time>
      </trkpt>
      <trkpt lat="47.63357" lon="6.00227">
        <ele>245</ele>
        <time>2010-01-01T02:07:41Z</time>
      </trkpt>
      <trkpt lat="47.63134" lon="6.00337">
        <ele>249</ele>
        <time>2010-01-01T02:09:15Z</time>
      </trkpt>
      <trkpt lat="47.62978" lon="6.00401">
        <ele>249</ele>
        <time>2010-01-01T02:10:20Z</time>
      </trkpt>
      <trkpt lat="47.63021" lon="6.00626">
        <ele>250</ele>
        <time>2010-01-01T02:11:23Z</time>
      </trkpt>
      <trkpt lat="47.62828" lon="6.00714">
        <ele>259</ele>
        <time>2010-01-01T02:12:44Z</time>
      </trkpt>
      <trkpt lat="47.62861" lon="6.00907">
        <ele>258</ele>
        <time>2010-01-01T02:13:37Z</time>
      </trkpt>
      <trkpt lat="47.62927" lon="6.00931">
        <ele>252</ele>
        <time>2010-01-01T02:14:05Z</time>
      </trkpt>
      <trkpt lat="47.63089" lon="6.00789">
        <ele>246</ele>
        <time>2010-01-01T02:15:20Z</time>
      </trkpt>
      <trkpt lat="47.63211" lon="6.00914">
        <ele>244</ele>
        <time>2010-01-01T02:16:19Z</time>
      </trkpt>
      <trkpt lat="47.6294" lon="6.0118">
        <ele>251</ele>
        <time>2010-01-01T02:18:29Z</time>
      </trkpt>
      <trkpt lat="47.63253" lon="6.01472">
        <ele>255</ele>
        <time>2010-01-01T02:20:57Z</time>
      </trkpt>
      <trkpt lat="47.63198" lon="6.01618">
        <ele>257</ele>
        <time>2010-01-01T02:21:42Z</time>
      </trkpt>
      <trkpt lat="47.63384" lon="6.01667">
        <ele>261</ele>
        <time>2010-01-01T02:22:58Z</time>
      </trkpt>
      <trkpt lat="47.63585" lon="6.01581">
        <ele>262</ele>
        <time>2010-01-01T02:24:22Z</time>
      </trkpt>
      <trkpt lat="47.63588" lon="6.01525">
        <ele>257</ele>
        <time>2010-01-01T02:24:37Z</time>
      </trkpt>
      <trkpt lat="47.6363" lon="6.01573">
        <ele>266</ele>
        <time>2010-01-01T02:24:58Z</time>
      </trkpt>
      <trkpt lat="47.63825" lon="6.01242">
        <ele>264</ele>
        <time>2010-01-01T02:26:57Z</time>
      </trkpt>
      <trkpt lat="47.63859" lon="6.01272">
        <ele>264</ele>
        <time>2010-01-01T02:27:13Z</time>
      </trkpt>
      <trkpt lat="47.64023" lon="6.00991">
        <ele>271</ele>
        <time>2010-01-01T02:28:53Z</time>
      </trkpt>
      <trkpt lat="47.64104" lon="6.01098">
        <ele>269</ele>
        <time>2010-01-01T02:29:36Z</time>
      </trkpt>
      <trkpt lat="47.64174" lon="6.01118">
        <ele>267</ele>
        <time>2010-01-01T02:30:05Z</time>
      </trkpt>
      <trkpt lat="47.64232" lon="6.01272">
        <ele>268</ele>
        <time>2010-01-01T02:30:52Z</time>
      </trkpt>
      <trkpt lat="47.64278" lon="6.01285">
        <ele>268</ele>
        <time>2010-01-01T02:31:11Z</time>
      </trkpt>
      <trkpt lat="47.64278" lon="6.01326">
        <ele>267</ele>
        <time>2010-01-01T02:31:22Z</time>
      </trkpt>
      <trkpt lat="47.64386" lon="6.01433">
        <ele>260</ele>
        <time>2010-01-01T02:32:14Z</time>
      </trkpt>
      <trkpt lat="47.64508" lon="6.01637">
        <ele>239</ele>
        <time>2010-01-01T02:33:28Z</time>
      </trkpt>
      <trkpt lat="47.64508" lon="6.01667">
        <ele>239</ele>
        <time>2010-01-01T02:33:36Z</time>
      </trkpt>
      <trkpt lat="47.64453" lon="6.01725">
        <ele>236</ele>
        <time>2010-01-01T02:34:03Z</time>
      </trkpt>
      <trkpt lat="47.64441" lon="6.01751">
        <ele>236</ele>
        <time>2010-01-01T02:34:11Z</time>
      </trkpt>
      <trkpt lat="47.64501" lon="6.01909">
        <ele>232</ele>
        <time>2010-01-01T02:35:00Z</time>
      </trkpt>
      <trkpt lat="47.64412" lon="6.02167">
        <ele>238</ele>
        <time>2010-01-01T02:36:18Z</time>
      </trkpt>
      <trkpt lat="47.64499" lon="6.02296">
        <ele>233</ele>
        <time>2010-01-01T02:37:08Z</time>
      </trkpt>
      <trkpt lat="47.64675" lon="6.02424">
        <ele>228</ele>
        <time>2010-01-01T02:38:26Z</time>
      </trkpt>
      <trkpt lat="47.64939" lon="6.02407">
        <ele>209</ele>
        <time>2010-01-01T02:40:12Z</time>
      </trkpt>
      <trkpt lat="47.64992" lon="6.02899">
        <ele>206</ele>
        <time>2010-01-01T02:42:26Z</time>
      </trkpt>
      <trkpt lat="47.65017" lon="6.02969">
        <ele>206</ele>
        <time>2010-01-01T02:42:48Z</time>
      </trkpt>
      <trkpt lat="47.6506" lon="6.0306">
        <ele>207</ele>
        <time>2010-01-01T02:43:18Z</time>
      </trkpt>
      <trkpt lat="47.65074" lon="6.0312">
        <ele>207</ele>
        <time>2010-01-01T02:43:35Z</time>
      </trkpt>
      <trkpt lat="47.65033" lon="6.03221">
        <ele>213</ele>
        <time>2010-01-01T02:44:06Z</time>
      </trkpt>
      <trkpt lat="47.64972" lon="6.0333">
        <ele>220</ele>
        <time>2010-01-01T02:44:45Z</time>
      </trkpt>
      <trkpt lat="47.64902" lon="6.03497">
        <ele>228</ele>
        <time>2010-01-01T02:45:38Z</time>
      </trkpt>
      <trkpt lat="47.64754" lon="6.03654">
        <ele>221</ele>
        <time>2010-01-01T02:46:51Z</time>
      </trkpt>
      <trkpt lat="47.64729" lon="6.0372">
        <ele>222</ele>
        <time>2010-01-01T02:47:11Z</time>
      </trkpt>
      <trkpt lat="47.64703" lon="6.03778">
        <ele>216</ele>
        <time>2010-01-01T02:47:30Z</time>
      </trkpt>
      <trkpt lat="47.64621" lon="6.03866">
        <ele>223</ele>
        <time>2010-01-01T02:48:10Z</time>
      </trkpt>
      <trkpt lat="47.64512" lon="6.04053">
        <ele>225</ele>
        <time>2010-01-01T02:49:17Z</time>
      </trkpt>
      <trkpt lat="47.64437" lon="6.04208">
        <ele>236</ele>
        <time>2010-01-01T02:50:08Z</time>
      </trkpt>
      <trkpt lat="47.64399" lon="6.04384">
        <ele>235</ele>
        <time>2010-01-01T02:50:58Z</time>
      </trkpt>
      <trkpt lat="47.64392" lon="6.04598">
        <ele>239</ele>
        <time>2010-01-01T02:51:56Z</time>
      </trkpt>
      <trkpt lat="47.64356" lon="6.04899">
        <ele>239</ele>
        <time>2010-01-01T02:53:18Z</time>
      </trkpt>
      <trkpt lat="47.64274" lon="6.05624">
        <ele>250</ele>
        <time>2010-01-01T02:56:37Z</time>
      </trkpt>
      <trkpt lat="47.64276" lon="6.05881">
        <ele>257</ele>
        <time>2010-01-01T02:57:46Z</time>
      </trkpt>
      <trkpt lat="47.64197" lon="6.06139">
        <ele>266</ele>
        <time>2010-01-01T02:59:02Z</time>
      </trkpt>
      <trkpt lat="47.6409" lon="6.05971">
        <ele>264</ele>
        <time>2010-01-01T03:00:05Z</time>
      </trkpt>
      <trkpt lat="47.64035" lon="6.05877">
        <ele>264</ele>
        <time>2010-01-01T03:00:38Z</time>
      </trkpt>
      <trkpt lat="47.63941" lon="6.05493">
        <ele>268</ele>
        <time>2010-01-01T03:02:29Z</time>
      </trkpt>
      <trkpt lat="47.63973" lon="6.05424">
        <ele>264</ele>
        <time>2010-01-01T03:02:51Z</time>
      </trkpt>
      <trkpt lat="47.63911" lon="6.05373">
        <ele>276</ele>
        <time>2010-01-01T03:03:20Z</time>
      </trkpt>
      <trkpt lat="47.63679" lon="6.05201">
        <ele>261</ele>
        <time>2010-01-01T03:05:03Z</time>
      </trkpt>
      <trkpt lat="47.63646" lon="6.05349">
        <ele>264</ele>
        <time>2010-01-01T03:05:45Z</time>
      </trkpt>
      <trkpt lat="47.63662" lon="6.05403">
        <ele>263</ele>
        <time>2010-01-01T03:06:01Z</time>
      </trkpt>
      <trkpt lat="47.63635" lon="6.056">
        <ele>259</ele>
        <time>2010-01-01T03:06:56Z</time>
      </trkpt>
      <trkpt lat="47.63653" lon="6.06008">
        <ele>243</ele>
        <time>2010-01-01T03:08:46Z</time>
      </trkpt>
      <trkpt lat="47.6365" lon="6.06265">
        <ele>253</ele>
        <time>2010-01-01T03:09:55Z</time>
      </trkpt>
      <trkpt lat="47.63718" lon="6.06504">
        <ele>261</ele>
        <time>2010-01-01T03:11:05Z</time>
      </trkpt>
      <trkpt lat="47.63543" lon="6.06549">
        <ele>255</ele>
        <time>2010-01-01T03:12:16Z</time>
      </trkpt>
      <trkpt lat="47.63447" lon="6.0654">
        <ele>252</ele>
        <time>2010-01-01T03:12:55Z</time>
      </trkpt>
      <trkpt lat="47.63309" lon="6.06549">
        <ele>249</ele>
        <time>2010-01-01T03:13:50Z</time>
      </trkpt>
      <trkpt lat="47.63166" lon="6.06559">
        <ele>246</ele>
        <time>2010-01-01T03:14:47Z</time>
      </trkpt>
      <trkpt lat="47.63127" lon="6.06589">
        <ele>246</ele>
        <time>2010-01-01T03:15:05Z</time>
      </trkpt>
      <trkpt lat="47.63094" lon="6.06643">
        <ele>240</ele>
        <time>2010-01-01T03:15:25Z</time>
      </trkpt>
      <trkpt lat="47.62962" lon="6.06626">
        <ele>236</ele>
        <time>2010-01-01T03:16:18Z</time>
      </trkpt>
      <trkpt lat="47.62904" lon="6.06645">
        <ele>227</ele>
        <time>2010-01-01T03:16:41Z</time>
      </trkpt>
      <trkpt lat="47.62852" lon="6.0663">
        <ele>217</ele>
        <time>2010-01-01T03:17:03Z</time>
      </trkpt>
      <trkpt lat="47.62774" lon="6.06534">
        <ele>222</ele>
        <time>2010-01-01T03:17:43Z</time>
      </trkpt>
      <trkpt lat="47.62679" lon="6.06439">
        <ele>215</ele>
        <time>2010-01-01T03:18:29Z</time>
      </trkpt>
      <trkpt lat="47.62442" lon="6.06875">
        <ele>214</ele>
        <time>2010-01-01T03:21:00Z</time>
      </trkpt>
      <trkpt lat="47.62459" lon="6.06986">
        <ele>214</ele>
        <time>2010-01-01T03:21:31Z</time>
      </trkpt>
      <trkpt lat="47.62437" lon="6.07128">
        <ele>219</ele>
        <time>2010-01-01T03:22:10Z</time>
      </trkpt>
      <trkpt lat="47.62356" lon="6.07426">
        <ele>225</ele>
        <time>2010-01-01T03:23:37Z</time>
      </trkpt>
      <trkpt lat="47.62297" lon="6.07679">
        <ele>235</ele>
        <time>2010-01-01T03:24:49Z</time>
      </trkpt>
      <trkpt lat="47.62239" lon="6.07853">
        <ele>242</ele>
        <time>2010-01-01T03:25:42Z</time>
      </trkpt>
      <trkpt lat="47.62246" lon="6.07971">
        <ele>254</ele>
        <time>2010-01-01T03:26:13Z</time>
      </trkpt>
      <trkpt lat="47.62173" lon="6.0828">
        <ele>262</ele>
        <time>2010-01-01T03:27:42Z</time>
      </trkpt>
      <trkpt lat="47.62097" lon="6.08445">
        <ele>268</ele>
        <time>2010-01-01T03:28:36Z</time>
      </trkpt>
      <trkpt lat="47.62068" lon="6.08512">
        <ele>273</ele>
        <time>2010-01-01T03:28:57Z</time>
      </trkpt>
      <trkpt lat="47.62009" lon="6.08583">
        <ele>275</ele>
        <time>2010-01-01T03:29:28Z</time>
      </trkpt>
      <trkpt lat="47.61957" lon="6.08724">
        <ele>283</ele>
        <time>2010-01-01T03:30:11Z</time>
      </trkpt>
      <trkpt lat="47.61928" lon="6.08853">
        <ele>285</ele>
        <time>2010-01-01T03:30:48Z</time>
      </trkpt>
      <trkpt lat="47.61879" lon="6.089">
        <ele>289</ele>
        <time>2010-01-01T03:31:11Z</time>
      </trkpt>
      <trkpt lat="47.61947" lon="6.09027">
        <ele>295</ele>
        <time>2010-01-01T03:31:55Z</time>
      </trkpt>
      <trkpt lat="47.61847" lon="6.09411">
        <ele>350</ele>
        <time>2010-01-01T03:33:46Z</time>
      </trkpt>
      <trkpt lat="47.61759" lon="6.09463">
        <ele>354</ele>
        <time>2010-01-01T03:34:24Z</time>
      </trkpt>
      <trkpt lat="47.6176" lon="6.09508">
        <ele>354</ele>
        <time>2010-01-01T03:34:36Z</time>
      </trkpt>
      <trkpt lat="47.61902" lon="6.09495">
        <ele>358</ele>
        <time>2010-01-01T03:35:33Z</time>
      </trkpt>
      <trkpt lat="47.62073" lon="6.09265">
        <ele>365</ele>
        <time>2010-01-01T03:37:05Z</time>
      </trkpt>
      <trkpt lat="47.62263" lon="6.09013">
        <ele>375</ele>
        <time>2010-01-01T03:38:47Z</time>
      </trkpt>
    </trkseg>
  </trk>
</gpx>